createdAt,value
2022-08-04T00:00:16.091Z,21.71
2022-08-04T00:03:14.000Z,21.75
2022-08-04T00:05:43.806Z,21.82
2022-08-04T00:08:32.277Z,21.69
2022-08-04T00:11:01.442Z,21.10
2022-08-04T00:13:35.077Z,21.36
2022-08-04T00:16:07.945Z,21.55
2022-08-04T00:18:41.400Z,21.31
2022-08-04T00:21:14.813Z,21.06
2022-08-04T00:24:10.397Z,21.35
2022-08-04T00:26:33.246Z,21.48
2022-08-04T00:29:01.206Z,21.35
2022-08-04T00:31:53.641Z,21.08
2022-08-04T00:34:16.146Z,21.52
2022-08-04T00:36:44.238Z,21.15
2022-08-04T00:39:16.882Z,21.36
2022-08-04T00:42:11.702Z,21.28
2022-08-04T00:44:53.799Z,21.31
2022-08-04T00:47:52.946Z,21.39
2022-08-04T00:50:45.395Z,21.36
2022-08-04T00:53:14.439Z,21.19
2022-08-04T00:56:01.393Z,20.78
2022-08-04T00:59:13.222Z,21.28
2022-08-04T01:02:00.654Z,21.25
2022-08-04T01:04:34.030Z,21.18
2022-08-04T01:07:26.151Z,21.01
2022-08-04T01:10:09.008Z,20.64
2022-08-04T01:12:54.670Z,21.01
2022-08-04T01:15:53.834Z,20.72
2022-08-04T01:18:30.652Z,20.86
2022-08-04T01:21:24.983Z,20.62
2022-08-04T01:24:29.413Z,20.65
2022-08-04T01:27:03.804Z,20.55
2022-08-04T01:29:47.266Z,20.41
2022-08-04T01:32:35.055Z,20.89
2022-08-04T01:35:10.953Z,20.58
2022-08-04T01:37:49.499Z,20.85
2022-08-04T01:40:17.250Z,20.91
2022-08-04T01:42:47.930Z,20.79
2022-08-04T01:45:15.773Z,20.52
2022-08-04T01:47:50.216Z,20.89
2022-08-04T01:50:17.501Z,20.87
2022-08-04T01:52:50.345Z,20.40
2022-08-04T01:55:18.726Z,20.75
2022-08-04T01:57:58.779Z,20.50
2022-08-04T02:00:28.471Z,20.83
2022-08-04T02:02:57.067Z,20.82
2022-08-04T02:06:02.556Z,20.63
2022-08-04T02:08:29.230Z,20.81
2022-08-04T02:11:16.312Z,20.82
2022-08-04T02:13:46.171Z,20.79
2022-08-04T02:16:33.266Z,20.83
2022-08-04T02:19:02.658Z,20.38
2022-08-04T02:21:42.585Z,20.73
2022-08-04T02:24:18.274Z,20.60
2022-08-04T02:26:49.778Z,20.73
2022-08-04T02:29:25.278Z,20.69
2022-08-04T02:32:06.503Z,20.27
2022-08-04T02:34:47.853Z,20.73
2022-08-04T02:37:18.056Z,20.73
2022-08-04T02:39:49.524Z,20.73
2022-08-04T02:42:17.229Z,20.72
2022-08-04T02:44:50.199Z,20.67
2022-08-04T02:47:22.562Z,20.71
2022-08-04T02:49:51.731Z,20.60
2022-08-04T02:52:20.914Z,19.92
2022-08-04T02:54:51.653Z,20.30
2022-08-04T02:57:20.160Z,20.70
2022-08-04T03:00:04.068Z,20.54
2022-08-04T03:02:58.971Z,20.87
2022-08-04T03:05:57.510Z,20.74
2022-08-04T03:08:51.623Z,20.92
2022-08-04T03:11:44.649Z,20.48
2022-08-04T03:14:35.681Z,20.44
2022-08-04T03:17:17.879Z,20.95
2022-08-04T03:20:05.871Z,21.00
2022-08-04T03:23:14.054Z,21.02
2022-08-04T03:25:57.055Z,21.12
2022-08-04T03:28:49.485Z,21.01
2022-08-04T03:31:31.406Z,21.10
2022-08-04T03:33:58.380Z,21.07
2022-08-04T03:36:38.179Z,21.11
2022-08-04T03:39:08.102Z,21.16
2022-08-04T03:42:15.919Z,21.25
2022-08-04T03:45:23.334Z,21.25
2022-08-04T03:47:58.623Z,20.97
2022-08-04T03:51:32.493Z,21.40
2022-08-04T03:54:03.248Z,21.37
2022-08-04T03:56:30.212Z,20.95
2022-08-04T03:59:37.419Z,21.52
2022-08-04T04:02:16.122Z,21.55
2022-08-04T04:05:04.950Z,21.14
2022-08-04T04:07:59.737Z,21.69
2022-08-04T04:11:07.407Z,21.80
2022-08-04T04:13:43.302Z,21.83
2022-08-04T04:16:19.397Z,21.94
2022-08-04T04:18:52.767Z,21.55
2022-08-04T04:21:44.122Z,21.67
2022-08-04T04:24:36.942Z,21.74
2022-08-04T04:27:23.979Z,22.16
2022-08-04T04:30:07.422Z,22.39
2022-08-04T04:33:02.487Z,22.51
2022-08-04T04:35:48.926Z,22.57
2022-08-04T04:38:57.986Z,22.55
2022-08-04T04:41:48.047Z,22.78
2022-08-04T04:44:30.884Z,22.75
2022-08-04T04:47:09.964Z,22.97
2022-08-04T04:49:51.505Z,23.05
2022-08-04T04:52:28.607Z,23.14
2022-08-04T04:55:20.920Z,23.12
2022-08-04T04:57:54.317Z,23.13
2022-08-04T05:00:26.411Z,23.29
2022-08-04T05:03:26.497Z,23.31
2022-08-04T05:06:09.939Z,23.56
2022-08-04T05:09:05.193Z,23.21
2022-08-04T05:12:02.529Z,23.75
2022-08-04T05:14:44.639Z,23.73
2022-08-04T05:17:26.571Z,23.84
2022-08-04T05:19:57.493Z,23.70
2022-08-04T05:22:46.536Z,23.65
2022-08-04T05:25:23.933Z,24.26
2022-08-04T05:27:58.039Z,24.28
2022-08-04T05:30:27.426Z,24.34
2022-08-04T05:33:04.223Z,24.39
2022-08-04T05:35:37.709Z,24.54
2022-08-04T05:38:29.922Z,24.69
2022-08-04T05:40:58.294Z,24.50
2022-08-04T05:43:26.376Z,23.72
2022-08-04T05:45:54.703Z,24.75
2022-08-04T05:48:22.155Z,24.94
2022-08-04T05:50:49.630Z,25.08
2022-08-04T05:53:18.062Z,24.69
2022-08-04T05:55:56.651Z,24.78
2022-08-04T05:58:30.090Z,25.22
2022-08-04T06:00:59.676Z,25.42
2022-08-04T06:03:32.020Z,25.45
2022-08-04T06:05:59.896Z,25.57
2022-08-04T06:08:27.130Z,25.56
2022-08-04T06:10:57.654Z,25.39
2022-08-04T06:13:49.119Z,25.80
2022-08-04T06:16:29.666Z,25.62
2022-08-04T06:19:59.942Z,26.12
2022-08-04T06:21:53.229Z,26.28
2022-08-04T06:24:23.701Z,26.21
2022-08-04T06:26:52.120Z,26.02
2022-08-04T06:29:27.078Z,25.92
2022-08-04T06:32:30.273Z,26.64
2022-08-04T06:34:46.712Z,27.27
2022-08-04T06:37:24.303Z,28.28
2022-08-04T06:40:13.974Z,28.91
2022-08-04T06:42:52.553Z,29.57
2022-08-04T06:45:20.850Z,29.51
2022-08-04T06:47:49.208Z,29.34
2022-08-04T06:51:25.534Z,29.08
2022-08-04T06:53:04.790Z,28.75
2022-08-04T06:55:33.663Z,28.74
2022-08-04T06:58:03.309Z,28.49
2022-08-04T07:00:32.372Z,28.31
2022-08-04T07:03:00.018Z,28.53
2022-08-04T07:05:27.298Z,28.55
2022-08-04T07:07:57.085Z,28.48
2022-08-04T07:10:29.382Z,28.54
2022-08-04T07:13:01.579Z,28.16
2022-08-04T07:15:29.859Z,28.27
2022-08-04T07:18:04.913Z,28.23
2022-08-04T07:20:35.812Z,28.18
2022-08-04T07:23:07.484Z,28.25
2022-08-04T07:26:00.497Z,28.03
2022-08-04T07:28:31.857Z,28.42
2022-08-04T07:30:59.044Z,28.15
2022-08-04T07:33:26.392Z,28.34
2022-08-04T07:36:05.661Z,28.61
2022-08-04T07:38:48.385Z,28.69
2022-08-04T07:41:39.027Z,28.83
2022-08-04T07:44:07.713Z,28.85
2022-08-04T07:46:35.935Z,28.87
2022-08-04T07:49:04.319Z,28.42
2022-08-04T07:51:32.151Z,28.83
2022-08-04T07:54:00.613Z,28.84
2022-08-04T07:56:28.655Z,28.44
2022-08-04T07:58:56.260Z,28.78
2022-08-04T08:01:24.785Z,28.28
2022-08-04T08:03:53.847Z,28.37
2022-08-04T08:06:32.907Z,28.83
2022-08-04T08:09:12.309Z,28.89
2022-08-04T08:12:37.144Z,28.48
2022-08-04T08:14:28.941Z,28.85
2022-08-04T08:16:56.004Z,28.74
2022-08-04T08:19:23.133Z,28.21
2022-08-04T08:21:59.542Z,28.59
2022-08-04T08:24:29.852Z,28.47
2022-08-04T08:26:57.258Z,28.45
2022-08-04T08:29:26.587Z,28.46
2022-08-04T08:31:57.776Z,28.00
2022-08-04T08:34:29.125Z,28.33
2022-08-04T08:37:10.982Z,28.47
2022-08-04T08:40:16.558Z,28.57
2022-08-04T08:44:06.348Z,28.45
2022-08-04T08:46:24.709Z,28.58
2022-08-04T08:50:02.979Z,28.07
2022-08-04T08:52:56.644Z,28.43
2022-08-04T08:55:26.461Z,28.43
2022-08-04T08:58:26.511Z,28.36
2022-08-04T09:01:11.702Z,28.54
2022-08-04T09:03:58.988Z,28.60
2022-08-04T09:06:37.308Z,28.52
2022-08-04T09:09:46.308Z,28.44
2022-08-04T09:12:28.056Z,28.30
2022-08-04T09:15:12.157Z,28.69
2022-08-04T09:17:49.119Z,28.94
2022-08-04T09:20:38.185Z,28.95
2022-08-04T09:23:28.671Z,29.06
2022-08-04T09:26:09.182Z,28.60
2022-08-04T09:28:54.005Z,28.73
2022-08-04T09:31:28.502Z,29.13
2022-08-04T09:34:26.900Z,28.49
2022-08-04T09:37:02.947Z,29.20
2022-08-04T09:39:37.378Z,29.27
2022-08-04T09:42:26.482Z,29.45
2022-08-04T09:45:07.652Z,29.47
2022-08-04T09:48:05.421Z,29.94
2022-08-04T09:50:37.585Z,30.48
2022-08-04T09:53:31.630Z,30.98
2022-08-04T09:56:09.643Z,31.00
2022-08-04T09:59:14.120Z,31.66
2022-08-04T10:01:42.272Z,31.56
2022-08-04T10:04:14.789Z,31.50
2022-08-04T10:06:48.832Z,31.42
2022-08-04T10:09:41.331Z,31.31
2022-08-04T10:12:31.669Z,31.23
2022-08-04T10:15:16.713Z,30.94
2022-08-04T10:17:54.736Z,30.62
2022-08-04T10:20:47.143Z,30.46
2022-08-04T10:23:56.320Z,30.50
2022-08-04T10:26:36.833Z,30.51
2022-08-04T10:29:26.458Z,30.55
2022-08-04T10:32:21.080Z,30.38
2022-08-04T10:35:08.771Z,30.17
2022-08-04T10:38:02.500Z,30.21
2022-08-04T10:40:48.000Z,30.11
2022-08-04T10:43:40.642Z,30.22
2022-08-04T10:46:16.593Z,29.86
2022-08-04T10:48:51.770Z,29.80
2022-08-04T10:51:28.080Z,30.32
2022-08-04T10:54:00.137Z,30.52
2022-08-04T10:56:44.302Z,29.98
2022-08-04T10:59:19.239Z,30.33
2022-08-04T11:02:02.727Z,30.44
2022-08-04T11:04:39.365Z,30.36
2022-08-04T11:07:07.428Z,30.26
2022-08-04T11:09:35.195Z,30.11
2022-08-04T11:12:17.080Z,30.24
2022-08-04T11:15:01.811Z,30.09
2022-08-04T11:17:38.323Z,30.12
2022-08-04T11:23:09.310Z,29.89
2022-08-04T11:25:48.485Z,29.89
2022-08-04T11:28:24.402Z,29.76
2022-08-04T11:31:05.611Z,29.22
2022-08-04T11:33:50.294Z,29.53
2022-08-04T11:36:34.812Z,29.16
2022-08-04T11:39:16.092Z,29.39
2022-08-04T11:41:58.042Z,29.64
2022-08-04T11:44:55.906Z,29.46
2022-08-04T11:47:31.975Z,29.26
2022-08-04T11:50:09.921Z,30.24
2022-08-04T11:52:42.005Z,30.14
2022-08-04T11:55:11.690Z,30.41
2022-08-04T11:57:39.457Z,30.43
2022-08-04T12:00:10.449Z,30.33
2022-08-04T12:02:49.673Z,30.64
2022-08-04T12:05:35.406Z,30.56
2022-08-04T12:08:26.724Z,30.69
2022-08-04T12:11:15.137Z,30.35
2022-08-04T12:14:13.845Z,30.43
2022-08-04T12:17:01.614Z,30.66
2022-08-04T12:19:53.909Z,30.71
2022-08-04T12:22:41.582Z,30.52
2022-08-04T12:25:20.202Z,30.78
2022-08-04T12:27:53.684Z,30.55
2022-08-04T12:30:58.923Z,30.07
2022-08-04T12:33:17.983Z,30.26
2022-08-04T12:35:57.478Z,30.34
2022-08-04T12:38:47.369Z,30.42
2022-08-04T12:41:21.597Z,29.95
2022-08-04T12:43:50.447Z,30.25
2022-08-04T12:46:26.020Z,30.18
2022-08-04T12:48:59.103Z,29.87
2022-08-04T12:52:06.327Z,29.87
2022-08-04T12:54:28.791Z,29.95
2022-08-04T12:57:01.549Z,29.66
2022-08-04T12:59:28.860Z,29.83
2022-08-04T13:02:09.125Z,29.68
2022-08-04T13:04:42.869Z,29.88
2022-08-04T13:07:26.922Z,29.95
2022-08-04T13:09:54.297Z,29.98
2022-08-04T13:12:32.323Z,29.85
2022-08-04T13:15:17.889Z,29.98
2022-08-04T13:18:00.014Z,29.94
2022-08-04T13:20:33.468Z,29.96
2022-08-04T13:23:21.842Z,30.01
2022-08-04T13:26:43.303Z,29.91
2022-08-04T13:29:00.919Z,29.89
2022-08-04T13:31:45.196Z,29.88
2022-08-04T13:34:21.417Z,29.68
2022-08-04T13:36:49.749Z,29.90
2022-08-04T13:39:21.919Z,29.87
2022-08-04T13:41:58.721Z,29.91
2022-08-04T13:44:30.560Z,29.79
2022-08-04T13:47:05.648Z,29.28
2022-08-04T13:49:54.254Z,29.66
2022-08-04T13:52:26.794Z,29.61
2022-08-04T13:54:54.007Z,29.45
2022-08-04T13:57:30.430Z,29.21
2022-08-04T14:00:07.397Z,29.98
2022-08-04T14:02:44.114Z,29.87
2022-08-04T14:05:27.825Z,29.91
2022-08-04T14:08:15.422Z,29.68
2022-08-04T14:10:42.515Z,29.64
2022-08-04T14:13:09.675Z,29.52
2022-08-04T14:16:01.939Z,29.69
2022-08-04T14:18:32.504Z,29.30
2022-08-04T14:21:09.553Z,29.65
2022-08-04T14:23:47.608Z,29.67
2022-08-04T14:26:21.214Z,29.65
2022-08-04T14:29:26.527Z,29.50
2022-08-04T14:32:10.870Z,29.59
2022-08-04T14:34:44.880Z,29.56
2022-08-04T14:37:20.524Z,29.55
2022-08-04T14:40:18.200Z,29.49
2022-08-04T14:42:55.774Z,28.99
2022-08-04T14:45:35.843Z,28.94
2022-08-04T14:48:07.868Z,29.27
2022-08-04T14:50:38.946Z,29.21
2022-08-04T14:53:14.580Z,29.16
2022-08-04T14:55:47.876Z,28.94
2022-08-04T14:58:34.608Z,28.90
2022-08-04T15:01:09.638Z,28.74
2022-08-04T15:03:49.799Z,28.86
2022-08-04T15:06:23.591Z,28.76
2022-08-04T15:08:53.112Z,28.73
2022-08-04T15:11:23.269Z,28.27
2022-08-04T15:13:55.447Z,28.60
2022-08-04T15:16:24.154Z,28.66
2022-08-04T15:18:52.784Z,28.50
2022-08-04T15:21:23.193Z,27.44
2022-08-04T15:23:51.304Z,28.46
2022-08-04T15:26:47.849Z,28.55
2022-08-04T15:29:19.067Z,28.40
2022-08-04T15:32:06.198Z,28.29
2022-08-04T15:34:51.865Z,28.18
2022-08-04T15:37:28.557Z,28.19
2022-08-04T15:40:07.143Z,28.00
2022-08-04T15:42:49.610Z,28.00
2022-08-04T15:46:41.173Z,28.00
2022-08-04T15:48:11.109Z,27.94
2022-08-04T15:50:58.233Z,27.97
2022-08-04T15:54:01.191Z,27.87
2022-08-04T15:56:24.862Z,27.91
2022-08-04T15:58:55.422Z,27.75
2022-08-04T16:01:23.208Z,27.60
2022-08-04T16:03:58.551Z,27.53
2022-08-04T16:06:29.126Z,27.32
2022-08-04T16:09:01.605Z,27.67
2022-08-04T16:11:33.066Z,27.63
2022-08-04T16:14:00.289Z,27.56
2022-08-04T16:16:36.852Z,27.44
2022-08-04T16:19:23.384Z,26.96
2022-08-04T16:21:57.000Z,27.30
2022-08-04T16:24:37.791Z,27.54
2022-08-04T16:27:08.456Z,27.46
2022-08-04T16:29:40.486Z,27.43
2022-08-04T16:32:13.357Z,27.39
2022-08-04T16:34:55.603Z,27.38
2022-08-04T16:37:43.240Z,27.42
2022-08-04T16:40:30.040Z,27.14
2022-08-04T16:43:15.835Z,27.31
2022-08-04T16:45:45.606Z,27.17
2022-08-04T16:48:14.356Z,26.92
2022-08-04T16:50:52.332Z,27.00
2022-08-04T16:53:58.005Z,27.19
2022-08-04T16:56:11.152Z,26.70
2022-08-04T16:58:38.514Z,27.05
2022-08-04T17:01:33.318Z,26.53
2022-08-04T17:04:07.259Z,26.85
2022-08-04T17:06:37.203Z,26.55
2022-08-04T17:09:16.583Z,26.80
2022-08-04T17:11:45.873Z,26.91
2022-08-04T17:14:13.801Z,26.71
2022-08-04T17:16:43.301Z,26.78
2022-08-04T17:19:24.096Z,26.11
2022-08-04T17:22:02.892Z,26.21
2022-08-04T17:24:32.454Z,26.64
2022-08-04T17:26:59.809Z,26.24
2022-08-04T17:32:21.739Z,26.38
2022-08-04T17:34:51.535Z,26.51
2022-08-04T17:37:39.330Z,26.30
2022-08-04T17:40:22.885Z,26.44
2022-08-04T17:44:01.156Z,25.83
2022-08-04T17:46:31.506Z,26.41
2022-08-04T17:49:02.348Z,25.74
2022-08-04T17:52:04.299Z,26.32
2022-08-04T17:54:39.740Z,26.21
2022-08-04T17:57:20.083Z,25.76
2022-08-04T17:59:59.215Z,26.12
2022-08-04T18:02:32.803Z,25.69
2022-08-04T18:05:11.629Z,25.83
2022-08-04T18:08:38.895Z,25.82
2022-08-04T18:10:52.329Z,25.91
2022-08-04T18:13:28.051Z,25.81
2022-08-04T18:16:05.806Z,25.83
2022-08-04T18:18:33.264Z,25.55
2022-08-04T18:21:03.523Z,25.53
2022-08-04T18:23:33.502Z,25.60
2022-08-04T18:26:02.122Z,25.49
2022-08-04T18:28:33.122Z,25.50
2022-08-04T18:31:01.872Z,24.76
2022-08-04T18:33:37.722Z,25.43
2022-08-04T18:36:33.229Z,25.20
2022-08-04T18:38:58.255Z,25.36
2022-08-04T18:41:27.644Z,25.39
2022-08-04T18:43:57.493Z,25.28
2022-08-04T18:46:27.243Z,25.10
2022-08-04T18:48:54.779Z,25.29
2022-08-04T18:51:25.261Z,25.30
2022-08-04T18:53:59.045Z,25.28
2022-08-04T18:56:29.694Z,24.73
2022-08-04T18:59:03.676Z,25.15
2022-08-04T19:02:13.519Z,25.19
2022-08-04T19:04:33.554Z,25.18
2022-08-04T19:09:53.883Z,25.08
2022-08-04T19:12:26.791Z,24.66
2022-08-04T19:14:58.184Z,25.07
2022-08-04T19:17:56.844Z,25.02
2022-08-04T19:20:24.201Z,25.00
2022-08-04T19:24:11.050Z,25.08
2022-08-04T19:25:59.018Z,25.21
2022-08-04T19:28:31.837Z,24.83
2022-08-04T19:31:03.842Z,24.98
2022-08-04T19:33:59.413Z,24.97
2022-08-04T19:36:17.852Z,25.10
2022-08-04T19:38:45.269Z,24.86
2022-08-04T19:41:14.277Z,24.80
2022-08-04T19:43:43.804Z,24.75
2022-08-04T19:46:11.326Z,24.56
2022-08-04T19:48:40.588Z,24.53
2022-08-04T19:51:07.956Z,24.98
2022-08-04T19:53:37.457Z,24.80
2022-08-04T19:56:10.054Z,24.52
2022-08-04T19:58:38.725Z,24.98
2022-08-04T20:01:28.657Z,24.86
2022-08-04T20:04:09.434Z,24.87
2022-08-04T20:06:38.122Z,24.94
2022-08-04T20:09:24.964Z,25.02
2022-08-04T20:11:52.146Z,25.05
2022-08-04T20:14:31.485Z,24.96
2022-08-04T20:17:01.767Z,24.94
2022-08-04T20:19:30.493Z,24.89
2022-08-04T20:21:58.395Z,24.86
2022-08-04T20:24:39.974Z,24.96
2022-08-04T20:27:15.334Z,24.97
2022-08-04T20:29:49.080Z,24.80
2022-08-04T20:32:22.633Z,25.04
2022-08-04T20:34:54.864Z,25.02
2022-08-04T20:37:23.989Z,24.96
2022-08-04T20:39:58.790Z,24.96
2022-08-04T20:42:33.673Z,24.88
2022-08-04T20:45:01.786Z,24.51
2022-08-04T20:47:35.090Z,24.89
2022-08-04T20:50:09.086Z,24.87
2022-08-04T20:55:24.292Z,24.85
2022-08-04T20:57:53.796Z,24.76
2022-08-04T21:00:26.602Z,24.55
2022-08-04T21:02:58.261Z,24.77
2022-08-04T21:05:26.449Z,24.75
2022-08-04T21:07:57.134Z,23.89
2022-08-04T21:10:27.202Z,23.25
2022-08-04T21:12:54.533Z,24.58
2022-08-04T21:15:25.700Z,24.62
2022-08-04T21:17:58.079Z,24.52
2022-08-04T21:23:18.928Z,24.43
2022-08-04T21:25:49.974Z,24.38
2022-08-04T21:28:20.373Z,24.31
2022-08-04T21:30:54.204Z,24.21
2022-08-04T21:33:24.342Z,24.44
2022-08-04T21:36:11.943Z,24.37
2022-08-04T21:38:39.715Z,24.27
2022-08-04T21:41:09.095Z,24.18
2022-08-04T21:43:42.600Z,24.40
2022-08-04T21:46:11.478Z,24.28
2022-08-04T21:48:39.535Z,24.35
2022-08-04T21:51:21.761Z,24.35
2022-08-04T21:54:08.994Z,24.18
2022-08-04T21:56:38.099Z,23.66
2022-08-04T21:59:11.567Z,23.74
2022-08-04T22:01:52.069Z,23.70
2022-08-04T22:04:19.909Z,23.86
2022-08-04T22:06:52.570Z,23.71
2022-08-04T22:09:21.777Z,24.09
2022-08-04T22:11:50.693Z,23.98
2022-08-04T22:14:28.949Z,23.91
2022-08-04T22:17:04.139Z,23.83
2022-08-04T22:19:40.314Z,23.94
2022-08-04T22:22:25.231Z,23.82
2022-08-04T22:25:00.299Z,23.38
2022-08-04T22:27:47.564Z,23.79
2022-08-04T22:30:17.622Z,23.88
2022-08-04T22:32:47.094Z,23.79
2022-08-04T22:35:35.654Z,23.72
2022-08-04T22:38:06.073Z,23.39
2022-08-04T22:40:47.802Z,23.63
2022-08-04T22:43:32.090Z,23.20
2022-08-04T22:46:05.018Z,23.14
2022-08-04T22:48:34.473Z,23.56
2022-08-04T22:51:02.663Z,23.31
2022-08-04T22:53:30.269Z,23.09
2022-08-04T22:56:10.225Z,23.13
2022-08-04T22:58:45.613Z,23.38
2022-08-04T23:01:18.752Z,23.33
2022-08-04T23:03:55.163Z,22.73
2022-08-04T23:06:28.703Z,23.03
2022-08-04T23:08:57.514Z,23.19
2022-08-04T23:11:24.623Z,23.00
2022-08-04T23:14:02.478Z,23.00
2022-08-04T23:16:29.706Z,23.08
2022-08-04T23:18:56.840Z,22.60
2022-08-04T23:21:24.408Z,22.62
2022-08-04T23:24:00.725Z,22.94
2022-08-04T23:26:31.660Z,23.02
2022-08-04T23:28:59.006Z,22.65
2022-08-04T23:31:40.453Z,22.99
2022-08-04T23:34:08.606Z,22.82
2022-08-04T23:36:35.793Z,22.93
2022-08-04T23:39:05.670Z,22.89
2022-08-04T23:41:53.403Z,22.88
2022-08-04T23:44:25.793Z,22.73
2022-08-04T23:47:01.208Z,22.85
2022-08-04T23:49:43.866Z,22.35
2022-08-04T23:52:28.277Z,22.70
2022-08-04T23:55:00.884Z,22.36
2022-08-04T23:57:31.151Z,22.73
